Airfield :
LOGIN :

Register | Disclaimer

   EN    FR    IT 

 










Legend :    VFR   Marginal VFR   IFR   Intensive IFR   Very Intensive IFR
Visi :
Ceiling :
>= 8 km
>= 3000ft
5 to 8 km
1000 to 3000 ft
1500m to 5 km
500 to 1000 ft
800 to 1500m
200 to 500 ft
< 800m
< 200 ft
Symbols :   Thunderstorms  Fog  Heavy snow  Heavy precipitations  Wind > 20 kt
SIGMETs :     Misc.  Thunderstorms  Icing  Turbulence  Mountain Waves  Volcanic Ashes






- Airport Elevation : 23 ft
- IATA code : XFW


EDHI - Hamburg Finkenwerder

CURRENT METAR :
  • 251750Z 20008KT 160V250 9999 FEW050TCU 14/10 Q1013

EXPIRED METARs :
  • 251720Z 22006KT 9999 VCSH SCT052TCU 15/10 Q1013
  • 251650Z 22011G22KT 9999 -SHRA FEW020TCU 14/09 Q1013
  • 251620Z 26009KT 9999 VCSH FEW060TCU 17/08 Q1012
  • 251550Z 24015KT 9999 VCSH FEW069TCU 17/06 Q1012

TAF TAF EDHI
Valid from the 25 at 18:00 until the 25 at 21:00 UTC


251700Z 2518/2521 24010KT 9999 SCT035TCU
PROB30
TEMPO 2518/2519 25015G25KT SHRA



MET'MAP, your aeronautical weather chart ! - Copyright ORBIFLY December 2007 - Disclaimer

ORBIFLY MET'MAP TEAM :

Programming & Development : Alexandra Zaïnal
Original concept : Baudouin d'Aumeries
Technical & hardware support : Manuel Goepfert
Assistance : Marc-Olivier Méhu

Contact : metmap@orbifly.com




SOURCES & CREDITS :

   NOAA